sensor_id;sensor_type;location;lat;lon;timestamp;temperature;humidity
5459;DHT22;2752;49.992;8.422;2023-04-25T00:01:50;9.10;70.50
5459;DHT22;2752;49.992;8.422;2023-04-25T00:04:18;9.10;69.20
5459;DHT22;2752;49.992;8.422;2023-04-25T00:06:46;9.10;70.40
5459;DHT22;2752;49.992;8.422;2023-04-25T00:09:12;9.10;70.50
5459;DHT22;2752;49.992;8.422;2023-04-25T00:11:40;9.20;70.50
5459;DHT22;2752;49.992;8.422;2023-04-25T00:14:06;9.10;69.20
5459;DHT22;2752;49.992;8.422;2023-04-25T00:16:33;9.10;68.90
5459;DHT22;2752;49.992;8.422;2023-04-25T00:19:01;9.10;70.70
5459;DHT22;2752;49.992;8.422;2023-04-25T00:21:28;9.20;68.20
5459;DHT22;2752;49.992;8.422;2023-04-25T00:23:59;9.10;67.20
5459;DHT22;2752;49.992;8.422;2023-04-25T00:26:25;9.10;70.50
5459;DHT22;2752;49.992;8.422;2023-04-25T00:28:52;9.00;70.20
5459;DHT22;2752;49.992;8.422;2023-04-25T00:31:19;9.10;70.70
5459;DHT22;2752;49.992;8.422;2023-04-25T00:33:45;9.10;71.80
5459;DHT22;2752;49.992;8.422;2023-04-25T00:36:12;9.00;73.60
5459;DHT22;2752;49.992;8.422;2023-04-25T00:38:38;9.10;75.80
5459;DHT22;2752;49.992;8.422;2023-04-25T00:41:07;9.10;73.90
5459;DHT22;2752;49.992;8.422;2023-04-25T00:43:36;9.10;74.50
5459;DHT22;2752;49.992;8.422;2023-04-25T00:46:03;9.10;76.50
5459;DHT22;2752;49.992;8.422;2023-04-25T00:48:29;9.00;74.40
5459;DHT22;2752;49.992;8.422;2023-04-25T00:50:57;9.10;74.80
5459;DHT22;2752;49.992;8.422;2023-04-25T00:53:26;9.00;73.20
5459;DHT22;2752;49.992;8.422;2023-04-25T00:55:53;9.20;74.20
5459;DHT22;2752;49.992;8.422;2023-04-25T00:58:22;9.20;70.10
5459;DHT22;2752;49.992;8.422;2023-04-25T01:00:51;9.20;68.10
5459;DHT22;2752;49.992;8.422;2023-04-25T01:03:18;9.20;67.80
5459;DHT22;2752;49.992;8.422;2023-04-25T01:05:46;9.20;66.70
5459;DHT22;2752;49.992;8.422;2023-04-25T01:08:13;9.20;62.90
5459;DHT22;2752;49.992;8.422;2023-04-25T01:10:40;9.20;62.40
5459;DHT22;2752;49.992;8.422;2023-04-25T01:13:07;9.20;63.50
5459;DHT22;2752;49.992;8.422;2023-04-25T01:15:35;9.20;62.60
5459;DHT22;2752;49.992;8.422;2023-04-25T01:18:03;9.10;62.80
5459;DHT22;2752;49.992;8.422;2023-04-25T01:20:32;9.30;63.40
5459;DHT22;2752;49.992;8.422;2023-04-25T01:23:01;9.20;64.20
5459;DHT22;2752;49.992;8.422;2023-04-25T01:25:29;9.10;66.20
5459;DHT22;2752;49.992;8.422;2023-04-25T01:27:56;9.10;63.60
5459;DHT22;2752;49.992;8.422;2023-04-25T01:30:24;9.10;66.20
5459;DHT22;2752;49.992;8.422;2023-04-25T01:32:52;9.10;65.20
5459;DHT22;2752;49.992;8.422;2023-04-25T01:35:20;9.10;64.80
5459;DHT22;2752;49.992;8.422;2023-04-25T01:37:49;9.00;64.80
5459;DHT22;2752;49.992;8.422;2023-04-25T01:40:17;8.90;69.30
5459;DHT22;2752;49.992;8.422;2023-04-25T01:42:45;9.10;69.10
5459;DHT22;2752;49.992;8.422;2023-04-25T01:45:12;9.10;67.70
5459;DHT22;2752;49.992;8.422;2023-04-25T01:47:39;9.20;65.80
5459;DHT22;2752;49.992;8.422;2023-04-25T01:50:09;9.10;64.80
5459;DHT22;2752;49.992;8.422;2023-04-25T01:52:36;9.00;67.30
5459;DHT22;2752;49.992;8.422;2023-04-25T01:55:04;9.00;68.00
5459;DHT22;2752;49.992;8.422;2023-04-25T01:57:32;9.10;66.50
5459;DHT22;2752;49.992;8.422;2023-04-25T02:00:00;9.60;65.30
5459;DHT22;2752;49.992;8.422;2023-04-25T02:02:28;9.00;64.40
5459;DHT22;2752;49.992;8.422;2023-04-25T02:04:54;9.10;66.90
5459;DHT22;2752;49.992;8.422;2023-04-25T02:07:21;9.00;65.20
5459;DHT22;2752;49.992;8.422;2023-04-25T02:09:48;9.10;67.00
5459;DHT22;2752;49.992;8.422;2023-04-25T02:12:15;9.20;63.90
5459;DHT22;2752;49.992;8.422;2023-04-25T02:14:43;9.20;59.00
5459;DHT22;2752;49.992;8.422;2023-04-25T02:17:10;9.20;59.70
5459;DHT22;2752;49.992;8.422;2023-04-25T02:19:38;9.10;60.80
5459;DHT22;2752;49.992;8.422;2023-04-25T02:22:04;9.10;64.20
5459;DHT22;2752;49.992;8.422;2023-04-25T02:24:31;9.10;62.50
5459;DHT22;2752;49.992;8.422;2023-04-25T02:26:59;9.20;60.30
5459;DHT22;2752;49.992;8.422;2023-04-25T02:29:26;9.10;58.20
5459;DHT22;2752;49.992;8.422;2023-04-25T02:31:54;9.00;59.70
5459;DHT22;2752;49.992;8.422;2023-04-25T02:34:20;8.90;62.90
5459;DHT22;2752;49.992;8.422;2023-04-25T02:36:48;8.90;66.70
5459;DHT22;2752;49.992;8.422;2023-04-25T02:39:15;8.90;66.30
5459;DHT22;2752;49.992;8.422;2023-04-25T02:41:41;9.10;58.10
5459;DHT22;2752;49.992;8.422;2023-04-25T02:44:08;9.20;52.90
5459;DHT22;2752;49.992;8.422;2023-04-25T02:46:35;9.10;50.90
5459;DHT22;2752;49.992;8.422;2023-04-25T02:49:03;9.10;51.80
5459;DHT22;2752;49.992;8.422;2023-04-25T02:51:30;9.10;49.30
5459;DHT22;2752;49.992;8.422;2023-04-25T02:53:58;8.90;51.70
5459;DHT22;2752;49.992;8.422;2023-04-25T02:56:24;9.00;49.40
5459;DHT22;2752;49.992;8.422;2023-04-25T02:58:52;9.00;47.80
5459;DHT22;2752;49.992;8.422;2023-04-25T03:01:18;8.90;45.00
5459;DHT22;2752;49.992;8.422;2023-04-25T03:03:45;8.90;44.20
5459;DHT22;2752;49.992;8.422;2023-04-25T03:06:13;8.80;37.90
5459;DHT22;2752;49.992;8.422;2023-04-25T03:08:40;8.90;41.40
5459;DHT22;2752;49.992;8.422;2023-04-25T03:11:06;8.90;42.30
5459;DHT22;2752;49.992;8.422;2023-04-25T03:13:33;8.90;40.80
5459;DHT22;2752;49.992;8.422;2023-04-25T03:16:00;8.90;42.40
5459;DHT22;2752;49.992;8.422;2023-04-25T03:18:27;9.00;39.90
5459;DHT22;2752;49.992;8.422;2023-04-25T03:20:54;8.80;37.30
5459;DHT22;2752;49.992;8.422;2023-04-25T03:23:22;8.70;41.30
5459;DHT22;2752;49.992;8.422;2023-04-25T03:25:48;8.90;40.90
5459;DHT22;2752;49.992;8.422;2023-04-25T03:28:15;8.80;40.80
5459;DHT22;2752;49.992;8.422;2023-04-25T03:30:41;8.70;41.80
5459;DHT22;2752;49.992;8.422;2023-04-25T03:33:08;8.60;44.60
5459;DHT22;2752;49.992;8.422;2023-04-25T03:35:35;8.70;40.10
5459;DHT22;2752;49.992;8.422;2023-04-25T03:38:01;8.60;39.90
5459;DHT22;2752;49.992;8.422;2023-04-25T03:40:29;8.50;41.50
5459;DHT22;2752;49.992;8.422;2023-04-25T03:42:56;8.50;43.30
5459;DHT22;2752;49.992;8.422;2023-04-25T03:45:22;8.40;45.40
5459;DHT22;2752;49.992;8.422;2023-04-25T03:47:49;8.50;49.50
5459;DHT22;2752;49.992;8.422;2023-04-25T03:50:16;8.50;46.80
5459;DHT22;2752;49.992;8.422;2023-04-25T03:52:43;8.50;45.40
5459;DHT22;2752;49.992;8.422;2023-04-25T03:55:10;8.40;45.40
5459;DHT22;2752;49.992;8.422;2023-04-25T03:57:38;8.40;44.60
5459;DHT22;2752;49.992;8.422;2023-04-25T04:00:06;8.40;43.10
5459;DHT22;2752;49.992;8.422;2023-04-25T04:02:33;8.40;39.50
5459;DHT22;2752;49.992;8.422;2023-04-25T04:05:01;8.30;42.60
5459;DHT22;2752;49.992;8.422;2023-04-25T04:07:28;8.50;40.10
5459;DHT22;2752;49.992;8.422;2023-04-25T04:09:55;8.40;37.40
5459;DHT22;2752;49.992;8.422;2023-04-25T04:12:21;8.40;38.10
5459;DHT22;2752;49.992;8.422;2023-04-25T04:14:49;8.40;38.60
5459;DHT22;2752;49.992;8.422;2023-04-25T04:17:16;8.40;40.00
5459;DHT22;2752;49.992;8.422;2023-04-25T04:19:43;8.40;39.60
5459;DHT22;2752;49.992;8.422;2023-04-25T04:22:09;8.30;38.20
5459;DHT22;2752;49.992;8.422;2023-04-25T04:24:36;8.30;39.50
5459;DHT22;2752;49.992;8.422;2023-04-25T04:27:03;8.30;39.90
5459;DHT22;2752;49.992;8.422;2023-04-25T04:29:29;8.30;40.80
5459;DHT22;2752;49.992;8.422;2023-04-25T04:31:57;8.30;36.50
5459;DHT22;2752;49.992;8.422;2023-04-25T04:34:26;8.20;25.60
5459;DHT22;2752;49.992;8.422;2023-04-25T04:36:53;8.10;9.50
5459;DHT22;2752;49.992;8.422;2023-04-25T04:39:20;8.10;13.40
5459;DHT22;2752;49.992;8.422;2023-04-25T04:41:47;8.10;14.10
5459;DHT22;2752;49.992;8.422;2023-04-25T04:44:14;8.00;15.50
5459;DHT22;2752;49.992;8.422;2023-04-25T04:46:40;8.10;14.00
5459;DHT22;2752;49.992;8.422;2023-04-25T04:49:09;8.20;11.70
5459;DHT22;2752;49.992;8.422;2023-04-25T04:51:35;8.10;11.90
5459;DHT22;2752;49.992;8.422;2023-04-25T04:54:02;8.00;9.50
5459;DHT22;2752;49.992;8.422;2023-04-25T04:56:30;8.00;9.30
5459;DHT22;2752;49.992;8.422;2023-04-25T04:58:57;8.00;11.70
5459;DHT22;2752;49.992;8.422;2023-04-25T05:01:24;7.90;7.40
5459;DHT22;2752;49.992;8.422;2023-04-25T05:03:51;8.00;9.30
5459;DHT22;2752;49.992;8.422;2023-04-25T05:08:46;7.70;10.60
5459;DHT22;2752;49.992;8.422;2023-04-25T05:11:13;7.80;10.60
5459;DHT22;2752;49.992;8.422;2023-04-25T05:13:39;7.80;9.90
5459;DHT22;2752;49.992;8.422;2023-04-25T05:16:06;7.80;7.30
5459;DHT22;2752;49.992;8.422;2023-04-25T05:18:33;7.80;9.00
5459;DHT22;2752;49.992;8.422;2023-04-25T05:20:59;7.80;7.80
5459;DHT22;2752;49.992;8.422;2023-04-25T05:23:27;7.70;5.40
5459;DHT22;2752;49.992;8.422;2023-04-25T05:25:55;7.80;5.10
5459;DHT22;2752;49.992;8.422;2023-04-25T05:28:22;7.90;5.30
5459;DHT22;2752;49.992;8.422;2023-04-25T05:30:49;7.90;4.40
5459;DHT22;2752;49.992;8.422;2023-04-25T05:33:16;8.00;3.20
5459;DHT22;2752;49.992;8.422;2023-04-25T05:35:43;8.00;4.30
5459;DHT22;2752;49.992;8.422;2023-04-25T05:38:10;8.10;5.40
5459;DHT22;2752;49.992;8.422;2023-04-25T05:40:38;8.10;4.20
5459;DHT22;2752;49.992;8.422;2023-04-25T05:43:04;8.20;1.00
5459;DHT22;2752;49.992;8.422;2023-04-25T05:45:31;8.30;1.00
5459;DHT22;2752;49.992;8.422;2023-04-25T05:47:58;8.40;1.00
5459;DHT22;2752;49.992;8.422;2023-04-25T05:50:24;8.30;1.00
5459;DHT22;2752;49.992;8.422;2023-04-25T05:52:51;8.30;1.00
5459;DHT22;2752;49.992;8.422;2023-04-25T05:55:18;8.30;1.00
5459;DHT22;2752;49.992;8.422;2023-04-25T05:57:46;8.30;1.00
5459;DHT22;2752;49.992;8.422;2023-04-25T06:00:13;8.30;1.00
5459;DHT22;2752;49.992;8.422;2023-04-25T06:02:41;8.10;1.00
5459;DHT22;2752;49.992;8.422;2023-04-25T06:05:08;8.20;1.00
5459;DHT22;2752;49.992;8.422;2023-04-25T06:07:35;8.30;1.00
5459;DHT22;2752;49.992;8.422;2023-04-25T06:10:01;8.40;1.00
5459;DHT22;2752;49.992;8.422;2023-04-25T06:12:31;8.50;1.00
5459;DHT22;2752;49.992;8.422;2023-04-25T06:14:59;8.50;1.00
5459;DHT22;2752;49.992;8.422;2023-04-25T06:17:26;8.60;1.00
5459;DHT22;2752;49.992;8.422;2023-04-25T06:19:52;8.60;1.00
5459;DHT22;2752;49.992;8.422;2023-04-25T06:22:19;8.60;1.00
5459;DHT22;2752;49.992;8.422;2023-04-25T06:24:46;8.60;1.00
5459;DHT22;2752;49.992;8.422;2023-04-25T06:27:12;8.60;1.00
5459;DHT22;2752;49.992;8.422;2023-04-25T06:29:39;8.90;1.00
5459;DHT22;2752;49.992;8.422;2023-04-25T06:32:07;9.20;1.00
5459;DHT22;2752;49.992;8.422;2023-04-25T06:34:33;9.40;1.00
5459;DHT22;2752;49.992;8.422;2023-04-25T06:37:00;9.50;1.00
5459;DHT22;2752;49.992;8.422;2023-04-25T06:39:26;9.40;1.00
5459;DHT22;2752;49.992;8.422;2023-04-25T06:41:53;9.40;1.00
5459;DHT22;2752;49.992;8.422;2023-04-25T06:44:20;9.30;1.00
5459;DHT22;2752;49.992;8.422;2023-04-25T06:46:48;9.50;1.00
5459;DHT22;2752;49.992;8.422;2023-04-25T06:49:16;9.50;1.00
5459;DHT22;2752;49.992;8.422;2023-04-25T06:51:43;9.50;1.00
5459;DHT22;2752;49.992;8.422;2023-04-25T06:54:09;9.40;1.00
5459;DHT22;2752;49.992;8.422;2023-04-25T06:56:36;9.50;1.00
5459;DHT22;2752;49.992;8.422;2023-04-25T06:59:03;9.60;1.00
5459;DHT22;2752;49.992;8.422;2023-04-25T07:01:29;9.70;1.00
5459;DHT22;2752;49.992;8.422;2023-04-25T07:03:56;9.80;1.00
5459;DHT22;2752;49.992;8.422;2023-04-25T07:06:24;9.70;1.00
5459;DHT22;2752;49.992;8.422;2023-04-25T07:08:52;9.60;1.00
5459;DHT22;2752;49.992;8.422;2023-04-25T07:11:18;9.50;1.00
5459;DHT22;2752;49.992;8.422;2023-04-25T07:13:45;9.50;1.00
5459;DHT22;2752;49.992;8.422;2023-04-25T07:16:12;9.60;1.00
5459;DHT22;2752;49.992;8.422;2023-04-25T07:18:38;9.80;1.00
5459;DHT22;2752;49.992;8.422;2023-04-25T07:21:05;9.90;1.00
5459;DHT22;2752;49.992;8.422;2023-04-25T07:23:33;10.00;1.00
5459;DHT22;2752;49.992;8.422;2023-04-25T07:26:00;9.90;1.00
5459;DHT22;2752;49.992;8.422;2023-04-25T07:28:26;9.90;1.00
5459;DHT22;2752;49.992;8.422;2023-04-25T07:30:53;9.80;1.00
5459;DHT22;2752;49.992;8.422;2023-04-25T07:33:19;9.80;1.00
5459;DHT22;2752;49.992;8.422;2023-04-25T07:35:46;9.80;1.00
5459;DHT22;2752;49.992;8.422;2023-04-25T07:38:13;9.80;1.00
5459;DHT22;2752;49.992;8.422;2023-04-25T07:40:41;9.90;1.00
5459;DHT22;2752;49.992;8.422;2023-04-25T07:43:08;10.00;1.00
5459;DHT22;2752;49.992;8.422;2023-04-25T07:45:34;10.00;1.00
5459;DHT22;2752;49.992;8.422;2023-04-25T07:48:01;10.20;1.00
5459;DHT22;2752;49.992;8.422;2023-04-25T07:50:28;10.30;1.00
5459;DHT22;2752;49.992;8.422;2023-04-25T07:52:55;10.70;1.00
5459;DHT22;2752;49.992;8.422;2023-04-25T07:55:21;10.70;1.00
5459;DHT22;2752;49.992;8.422;2023-04-25T07:57:49;10.70;1.00
5459;DHT22;2752;49.992;8.422;2023-04-25T08:00:16;10.70;1.00
5459;DHT22;2752;49.992;8.422;2023-04-25T08:02:43;10.50;1.00
5459;DHT22;2752;49.992;8.422;2023-04-25T08:05:10;10.40;1.00
5459;DHT22;2752;49.992;8.422;2023-04-25T08:07:39;10.40;1.00
5459;DHT22;2752;49.992;8.422;2023-04-25T08:10:08;10.50;1.00
5459;DHT22;2752;49.992;8.422;2023-04-25T08:12:34;10.40;1.00
5459;DHT22;2752;49.992;8.422;2023-04-25T08:15:04;10.40;1.00
5459;DHT22;2752;49.992;8.422;2023-04-25T08:17:31;10.10;1.00
5459;DHT22;2752;49.992;8.422;2023-04-25T08:19:58;10.10;1.00
5459;DHT22;2752;49.992;8.422;2023-04-25T08:22:24;10.50;1.00
5459;DHT22;2752;49.992;8.422;2023-04-25T08:24:51;10.60;1.00
5459;DHT22;2752;49.992;8.422;2023-04-25T08:27:18;10.80;1.00
5459;DHT22;2752;49.992;8.422;2023-04-25T08:29:46;10.80;1.00
5459;DHT22;2752;49.992;8.422;2023-04-25T08:32:14;10.60;1.00
5459;DHT22;2752;49.992;8.422;2023-04-25T08:34:40;10.70;1.00
5459;DHT22;2752;49.992;8.422;2023-04-25T08:37:08;10.70;1.00
5459;DHT22;2752;49.992;8.422;2023-04-25T08:39:36;10.90;1.00
5459;DHT22;2752;49.992;8.422;2023-04-25T08:42:05;10.90;1.00
5459;DHT22;2752;49.992;8.422;2023-04-25T08:44:33;11.10;1.00
5459;DHT22;2752;49.992;8.422;2023-04-25T08:47:01;11.10;1.00
5459;DHT22;2752;49.992;8.422;2023-04-25T08:49:31;11.30;1.00
5459;DHT22;2752;49.992;8.422;2023-04-25T08:52:00;11.30;1.00
5459;DHT22;2752;49.992;8.422;2023-04-25T08:54:27;11.40;1.00
5459;DHT22;2752;49.992;8.422;2023-04-25T08:56:57;11.50;1.00
5459;DHT22;2752;49.992;8.422;2023-04-25T08:59:24;11.40;1.00
5459;DHT22;2752;49.992;8.422;2023-04-25T09:01:51;11.30;1.00
5459;DHT22;2752;49.992;8.422;2023-04-25T09:04:18;11.20;1.00
5459;DHT22;2752;49.992;8.422;2023-04-25T09:06:47;11.00;1.00
5459;DHT22;2752;49.992;8.422;2023-04-25T09:09:13;10.80;1.00
5459;DHT22;2752;49.992;8.422;2023-04-25T09:11:40;10.90;1.00
5459;DHT22;2752;49.992;8.422;2023-04-25T09:14:14;11.70;1.00
5459;DHT22;2752;49.992;8.422;2023-04-25T09:16:57;11.40;1.00
5459;DHT22;2752;49.992;8.422;2023-04-25T09:19:26;11.40;1.00
5459;DHT22;2752;49.992;8.422;2023-04-25T09:21:57;11.50;1.00
5459;DHT22;2752;49.992;8.422;2023-04-25T09:24:34;11.90;1.00
5459;DHT22;2752;49.992;8.422;2023-04-25T09:27:03;11.60;1.00
5459;DHT22;2752;49.992;8.422;2023-04-25T09:29:31;11.50;1.00
5459;DHT22;2752;49.992;8.422;2023-04-25T09:32:16;11.50;1.00
5459;DHT22;2752;49.992;8.422;2023-04-25T09:34:44;11.60;1.00
5459;DHT22;2752;49.992;8.422;2023-04-25T09:37:17;11.60;1.00
5459;DHT22;2752;49.992;8.422;2023-04-25T09:39:45;11.60;1.00
5459;DHT22;2752;49.992;8.422;2023-04-25T09:42:12;11.60;1.00
5459;DHT22;2752;49.992;8.422;2023-04-25T09:44:43;11.60;1.00
5459;DHT22;2752;49.992;8.422;2023-04-25T09:47:10;11.70;1.00
5459;DHT22;2752;49.992;8.422;2023-04-25T09:49:40;11.80;1.00
5459;DHT22;2752;49.992;8.422;2023-04-25T09:52:08;12.00;1.00
5459;DHT22;2752;49.992;8.422;2023-04-25T09:54:36;12.10;1.00
5459;DHT22;2752;49.992;8.422;2023-04-25T09:57:10;12.10;1.00
5459;DHT22;2752;49.992;8.422;2023-04-25T09:59:38;12.00;1.00
5459;DHT22;2752;49.992;8.422;2023-04-25T10:02:06;11.80;1.00
5459;DHT22;2752;49.992;8.422;2023-04-25T10:04:35;11.90;1.00
5459;DHT22;2752;49.992;8.422;2023-04-25T10:07:03;11.90;1.00
5459;DHT22;2752;49.992;8.422;2023-04-25T10:09:32;12.00;1.00
5459;DHT22;2752;49.992;8.422;2023-04-25T10:12:01;12.00;1.00
5459;DHT22;2752;49.992;8.422;2023-04-25T10:14:29;11.70;1.00
5459;DHT22;2752;49.992;8.422;2023-04-25T10:16:57;11.40;1.00
5459;DHT22;2752;49.992;8.422;2023-04-25T10:19:24;11.40;1.00
5459;DHT22;2752;49.992;8.422;2023-04-25T10:21:54;11.30;1.00
5459;DHT22;2752;49.992;8.422;2023-04-25T10:24:22;11.20;1.00
5459;DHT22;2752;49.992;8.422;2023-04-25T10:26:50;11.20;1.00
5459;DHT22;2752;49.992;8.422;2023-04-25T10:29:23;11.00;1.00
5459;DHT22;2752;49.992;8.422;2023-04-25T10:31:50;11.30;1.00
5459;DHT22;2752;49.992;8.422;2023-04-25T10:34:17;11.40;1.00
5459;DHT22;2752;49.992;8.422;2023-04-25T10:36:49;11.50;1.00
5459;DHT22;2752;49.992;8.422;2023-04-25T10:39:22;11.80;1.00
5459;DHT22;2752;49.992;8.422;2023-04-25T10:41:54;12.10;1.00
5459;DHT22;2752;49.992;8.422;2023-04-25T10:44:26;12.40;1.00
5459;DHT22;2752;49.992;8.422;2023-04-25T10:46:55;12.50;1.00
5459;DHT22;2752;49.992;8.422;2023-04-25T10:49:29;12.30;1.00
5459;DHT22;2752;49.992;8.422;2023-04-25T10:52:17;12.30;1.00
5459;DHT22;2752;49.992;8.422;2023-04-25T10:54:48;12.30;1.00
5459;DHT22;2752;49.992;8.422;2023-04-25T10:57:29;12.20;1.00
5459;DHT22;2752;49.992;8.422;2023-04-25T11:00:05;12.10;1.00
5459;DHT22;2752;49.992;8.422;2023-04-25T11:02:37;12.10;1.00
5459;DHT22;2752;49.992;8.422;2023-04-25T11:05:05;11.90;1.00
5459;DHT22;2752;49.992;8.422;2023-04-25T11:07:38;12.00;1.00
5459;DHT22;2752;49.992;8.422;2023-04-25T11:10:06;12.10;1.00
5459;DHT22;2752;49.992;8.422;2023-04-25T11:12:33;12.10;1.00
5459;DHT22;2752;49.992;8.422;2023-04-25T11:15:03;12.00;1.00
5459;DHT22;2752;49.992;8.422;2023-04-25T11:17:30;11.90;1.00
5459;DHT22;2752;49.992;8.422;2023-04-25T11:22:24;12.30;1.00
5459;DHT22;2752;49.992;8.422;2023-04-25T11:24:51;12.30;1.00
5459;DHT22;2752;49.992;8.422;2023-04-25T11:27:18;12.40;1.00
5459;DHT22;2752;49.992;8.422;2023-04-25T11:29:44;12.50;1.00
5459;DHT22;2752;49.992;8.422;2023-04-25T11:32:15;12.40;1.00
5459;DHT22;2752;49.992;8.422;2023-04-25T11:34:43;12.50;1.00
5459;DHT22;2752;49.992;8.422;2023-04-25T11:37:10;12.70;1.00
5459;DHT22;2752;49.992;8.422;2023-04-25T11:39:42;12.60;1.00
5459;DHT22;2752;49.992;8.422;2023-04-25T11:42:09;12.70;1.00
5459;DHT22;2752;49.992;8.422;2023-04-25T11:44:35;12.50;1.00
5459;DHT22;2752;49.992;8.422;2023-04-25T11:47:04;12.40;1.00
5459;DHT22;2752;49.992;8.422;2023-04-25T11:49:32;12.30;1.00
5459;DHT22;2752;49.992;8.422;2023-04-25T11:51:58;12.30;1.00
5459;DHT22;2752;49.992;8.422;2023-04-25T11:54:25;12.30;1.00
5459;DHT22;2752;49.992;8.422;2023-04-25T11:56:51;12.30;1.00
5459;DHT22;2752;49.992;8.422;2023-04-25T11:59:23;12.40;1.00
5459;DHT22;2752;49.992;8.422;2023-04-25T12:01:50;12.20;1.00
5459;DHT22;2752;49.992;8.422;2023-04-25T12:04:19;12.00;1.00
5459;DHT22;2752;49.992;8.422;2023-04-25T12:06:49;12.00;1.00
5459;DHT22;2752;49.992;8.422;2023-04-25T12:09:17;11.80;1.00
5459;DHT22;2752;49.992;8.422;2023-04-25T12:11:46;11.60;1.00
5459;DHT22;2752;49.992;8.422;2023-04-25T12:14:20;11.70;1.00
5459;DHT22;2752;49.992;8.422;2023-04-25T12:16:48;11.60;1.00
5459;DHT22;2752;49.992;8.422;2023-04-25T12:19:15;11.80;1.00
5459;DHT22;2752;49.992;8.422;2023-04-25T12:21:42;12.00;1.00
5459;DHT22;2752;49.992;8.422;2023-04-25T12:24:14;12.00;1.00
5459;DHT22;2752;49.992;8.422;2023-04-25T12:26:49;12.20;1.00
5459;DHT22;2752;49.992;8.422;2023-04-25T12:29:18;12.30;1.00
5459;DHT22;2752;49.992;8.422;2023-04-25T12:31:45;12.30;1.00
5459;DHT22;2752;49.992;8.422;2023-04-25T12:34:11;12.20;1.00
5459;DHT22;2752;49.992;8.422;2023-04-25T12:36:38;12.10;1.00
5459;DHT22;2752;49.992;8.422;2023-04-25T12:39:05;12.30;1.00
5459;DHT22;2752;49.992;8.422;2023-04-25T12:41:33;12.30;1.00
5459;DHT22;2752;49.992;8.422;2023-04-25T12:44:00;12.40;1.00
5459;DHT22;2752;49.992;8.422;2023-04-25T12:46:26;12.50;1.00
5459;DHT22;2752;49.992;8.422;2023-04-25T12:48:53;12.40;1.00
5459;DHT22;2752;49.992;8.422;2023-04-25T12:51:20;12.50;1.00
5459;DHT22;2752;49.992;8.422;2023-04-25T12:53:50;12.60;1.00
5459;DHT22;2752;49.992;8.422;2023-04-25T12:56:17;12.50;1.00
5459;DHT22;2752;49.992;8.422;2023-04-25T12:58:45;12.50;1.00
5459;DHT22;2752;49.992;8.422;2023-04-25T13:01:13;12.40;1.00
5459;DHT22;2752;49.992;8.422;2023-04-25T13:03:40;12.00;1.00
5459;DHT22;2752;49.992;8.422;2023-04-25T13:06:07;11.90;1.00
5459;DHT22;2752;49.992;8.422;2023-04-25T13:08:34;11.60;1.00
5459;DHT22;2752;49.992;8.422;2023-04-25T13:11:02;11.50;1.00
5459;DHT22;2752;49.992;8.422;2023-04-25T13:13:29;11.70;1.00
5459;DHT22;2752;49.992;8.422;2023-04-25T13:15:58;11.70;1.00
5459;DHT22;2752;49.992;8.422;2023-04-25T13:18:24;11.70;1.00
5459;DHT22;2752;49.992;8.422;2023-04-25T13:20:52;11.70;1.00
5459;DHT22;2752;49.992;8.422;2023-04-25T13:23:18;11.70;1.00
5459;DHT22;2752;49.992;8.422;2023-04-25T13:25:45;11.90;1.00
5459;DHT22;2752;49.992;8.422;2023-04-25T13:28:12;11.90;1.00
5459;DHT22;2752;49.992;8.422;2023-04-25T13:30:39;11.90;1.00
5459;DHT22;2752;49.992;8.422;2023-04-25T13:33:07;12.00;1.00
5459;DHT22;2752;49.992;8.422;2023-04-25T13:35:35;12.10;1.00
5459;DHT22;2752;49.992;8.422;2023-04-25T13:38:02;12.20;1.00
5459;DHT22;2752;49.992;8.422;2023-04-25T13:40:29;12.40;1.00
5459;DHT22;2752;49.992;8.422;2023-04-25T13:42:57;12.60;1.00
5459;DHT22;2752;49.992;8.422;2023-04-25T13:45:24;12.50;1.00
5459;DHT22;2752;49.992;8.422;2023-04-25T13:47:51;12.40;1.00
5459;DHT22;2752;49.992;8.422;2023-04-25T13:50:19;12.20;1.00
5459;DHT22;2752;49.992;8.422;2023-04-25T13:52:45;12.10;1.00
5459;DHT22;2752;49.992;8.422;2023-04-25T13:55:12;12.20;1.00
5459;DHT22;2752;49.992;8.422;2023-04-25T13:57:39;12.20;1.00
5459;DHT22;2752;49.992;8.422;2023-04-25T14:00:06;12.20;1.00
5459;DHT22;2752;49.992;8.422;2023-04-25T14:02:34;12.20;1.00
5459;DHT22;2752;49.992;8.422;2023-04-25T14:05:01;12.20;1.00
5459;DHT22;2752;49.992;8.422;2023-04-25T14:07:30;12.40;1.00
5459;DHT22;2752;49.992;8.422;2023-04-25T14:09:56;12.50;1.00
5459;DHT22;2752;49.992;8.422;2023-04-25T14:12:23;12.60;1.00
5459;DHT22;2752;49.992;8.422;2023-04-25T14:14:50;12.50;1.00
5459;DHT22;2752;49.992;8.422;2023-04-25T14:17:18;12.50;1.00
5459;DHT22;2752;49.992;8.422;2023-04-25T14:19:44;12.50;1.00
5459;DHT22;2752;49.992;8.422;2023-04-25T14:22:13;12.40;1.00
5459;DHT22;2752;49.992;8.422;2023-04-25T14:24:42;12.30;1.00
5459;DHT22;2752;49.992;8.422;2023-04-25T14:27:08;12.20;1.00
5459;DHT22;2752;49.992;8.422;2023-04-25T14:29:35;12.10;1.00
5459;DHT22;2752;49.992;8.422;2023-04-25T14:32:02;12.10;1.00
5459;DHT22;2752;49.992;8.422;2023-04-25T14:34:30;12.10;1.00
5459;DHT22;2752;49.992;8.422;2023-04-25T14:36:57;12.00;1.00
5459;DHT22;2752;49.992;8.422;2023-04-25T14:39:23;11.90;1.00
5459;DHT22;2752;49.992;8.422;2023-04-25T14:41:51;12.00;1.00
5459;DHT22;2752;49.992;8.422;2023-04-25T14:44:18;12.10;1.00
5459;DHT22;2752;49.992;8.422;2023-04-25T14:46:45;12.30;1.00
5459;DHT22;2752;49.992;8.422;2023-04-25T14:49:11;12.30;1.00
5459;DHT22;2752;49.992;8.422;2023-04-25T14:51:38;12.40;1.00
5459;DHT22;2752;49.992;8.422;2023-04-25T14:54:05;12.50;1.00
5459;DHT22;2752;49.992;8.422;2023-04-25T14:56:32;12.50;1.00
5459;DHT22;2752;49.992;8.422;2023-04-25T14:59:00;12.40;1.00
5459;DHT22;2752;49.992;8.422;2023-04-25T15:01:27;12.20;1.00
5459;DHT22;2752;49.992;8.422;2023-04-25T15:03:53;12.10;1.00
5459;DHT22;2752;49.992;8.422;2023-04-25T15:06:20;12.00;1.00
5459;DHT22;2752;49.992;8.422;2023-04-25T15:08:47;12.00;1.00
5459;DHT22;2752;49.992;8.422;2023-04-25T15:11:13;11.90;1.00
5459;DHT22;2752;49.992;8.422;2023-04-25T15:13:40;11.70;1.00
5459;DHT22;2752;49.992;8.422;2023-04-25T15:16:08;11.70;1.00
5459;DHT22;2752;49.992;8.422;2023-04-25T15:18:35;11.70;1.00
5459;DHT22;2752;49.992;8.422;2023-04-25T15:21:02;11.60;1.00
5459;DHT22;2752;49.992;8.422;2023-04-25T15:23:29;11.70;1.00
5459;DHT22;2752;49.992;8.422;2023-04-25T15:25:56;11.90;1.00
5459;DHT22;2752;49.992;8.422;2023-04-25T15:28:23;11.90;1.00
5459;DHT22;2752;49.992;8.422;2023-04-25T15:30:50;11.90;1.00
5459;DHT22;2752;49.992;8.422;2023-04-25T15:33:18;11.90;1.00
5459;DHT22;2752;49.992;8.422;2023-04-25T15:35:44;11.90;1.00
5459;DHT22;2752;49.992;8.422;2023-04-25T15:38:11;12.00;1.00
5459;DHT22;2752;49.992;8.422;2023-04-25T15:40:37;12.20;1.00
5459;DHT22;2752;49.992;8.422;2023-04-25T15:43:04;12.40;1.00
5459;DHT22;2752;49.992;8.422;2023-04-25T15:45:31;12.70;1.00
5459;DHT22;2752;49.992;8.422;2023-04-25T15:47:58;12.80;1.00
5459;DHT22;2752;49.992;8.422;2023-04-25T15:50:27;13.10;1.00
5459;DHT22;2752;49.992;8.422;2023-04-25T15:52:54;13.50;1.00
5459;DHT22;2752;49.992;8.422;2023-04-25T15:55:22;13.50;1.00
5459;DHT22;2752;49.992;8.422;2023-04-25T15:57:51;13.60;1.00
5459;DHT22;2752;49.992;8.422;2023-04-25T16:00:18;13.60;1.00
5459;DHT22;2752;49.992;8.422;2023-04-25T16:02:46;13.60;1.00
5459;DHT22;2752;49.992;8.422;2023-04-25T16:05:13;13.60;1.00
5459;DHT22;2752;49.992;8.422;2023-04-25T16:07:43;13.80;1.00
5459;DHT22;2752;49.992;8.422;2023-04-25T16:10:10;13.90;1.00
5459;DHT22;2752;49.992;8.422;2023-04-25T16:12:38;13.80;1.00
5459;DHT22;2752;49.992;8.422;2023-04-25T16:15:05;13.90;1.00
5459;DHT22;2752;49.992;8.422;2023-04-25T16:17:32;13.80;1.00
5459;DHT22;2752;49.992;8.422;2023-04-25T16:19:59;13.60;1.00
5459;DHT22;2752;49.992;8.422;2023-04-25T16:22:34;13.50;1.00
5459;DHT22;2752;49.992;8.422;2023-04-25T16:25:02;13.40;1.00
5459;DHT22;2752;49.992;8.422;2023-04-25T16:27:28;13.30;1.00